createdAt,value
2023-02-06T00:00:15.993Z,23.6
2023-02-06T00:01:32.289Z,21.6
2023-02-06T00:02:48.588Z,21.8
2023-02-06T00:04:04.876Z,21.3
2023-02-06T00:05:21.182Z,20.6
2023-02-06T00:06:37.478Z,20.5
2023-02-06T00:07:53.775Z,22.2
2023-02-06T00:09:10.071Z,19.9
2023-02-06T00:10:26.335Z,21.1
2023-02-06T00:11:42.649Z,21.7
2023-02-06T00:12:58.940Z,21
2023-02-06T00:14:15.231Z,24.1
2023-02-06T00:15:30.541Z,23
2023-02-06T00:16:46.849Z,23.5
2023-02-06T00:18:03.131Z,21.8
2023-02-06T00:19:19.426Z,23.4
2023-02-06T00:20:35.737Z,24.3
2023-02-06T00:21:52.017Z,24.7
2023-02-06T00:23:08.315Z,24.4
2023-02-06T00:24:24.613Z,24.3
2023-02-06T00:25:40.905Z,25.5
2023-02-06T00:26:57.206Z,27.1
2023-02-06T00:28:13.502Z,27.9
2023-02-06T00:29:29.798Z,26.7
2023-02-06T00:30:46.101Z,23.6
2023-02-06T00:32:01.400Z,23.3
2023-02-06T00:33:17.709Z,25.1
2023-02-06T00:34:34.000Z,23.4
2023-02-06T00:35:50.292Z,24.5
2023-02-06T00:37:06.586Z,23.2
2023-02-06T00:38:22.893Z,24.4
2023-02-06T00:39:39.189Z,21.9
2023-02-06T00:40:55.467Z,21.9
2023-02-06T00:42:11.771Z,24.1
2023-02-06T00:43:28.066Z,22.1
2023-02-06T00:44:44.370Z,23.1
2023-02-06T00:46:00.655Z,23.4
2023-02-06T00:47:16.961Z,22.2
2023-02-06T00:48:32.259Z,24.8
2023-02-06T00:51:04.863Z,23.5
2023-02-06T00:52:21.156Z,22.2
2023-02-06T00:53:37.441Z,24.5
2023-02-06T00:54:53.737Z,25.3
2023-02-06T00:56:10.034Z,23.5
2023-02-06T00:57:26.340Z,24
2023-02-06T00:58:42.631Z,21.6
2023-02-06T00:59:58.935Z,20.7
2023-02-06T01:01:15.236Z,22.4
2023-02-06T01:02:31.526Z,21.5
2023-02-06T01:03:47.807Z,22.8
2023-02-06T01:05:03.138Z,22.7
2023-02-06T01:06:19.423Z,23.9
2023-02-06T01:07:35.722Z,21.9
2023-02-06T01:08:52.011Z,23.6
2023-02-06T01:10:08.312Z,22.1
2023-02-06T01:11:24.599Z,21.2
2023-02-06T01:12:40.897Z,21.9
2023-02-06T01:13:57.206Z,23.4
2023-02-06T01:15:13.502Z,22
2023-02-06T01:16:29.794Z,22.4
2023-02-06T01:17:46.082Z,23.9
2023-02-06T01:19:02.375Z,22.1
2023-02-06T01:20:18.673Z,22.7
2023-02-06T01:21:33.993Z,24.1
2023-02-06T01:22:50.289Z,23.7
2023-02-06T01:24:06.581Z,23.6
2023-02-06T01:25:22.869Z,22
2023-02-06T01:26:39.181Z,23.2
2023-02-06T01:27:55.460Z,24
2023-02-06T01:29:11.767Z,23.2
2023-02-06T01:30:28.054Z,24.1
2023-02-06T01:31:43.386Z,23.6
2023-02-06T01:34:15.974Z,23.9
2023-02-06T01:35:32.261Z,22.8
2023-02-06T01:36:48.554Z,23.9
2023-02-06T01:38:04.834Z,23.4
2023-02-06T01:39:21.156Z,21.6
2023-02-06T01:40:37.454Z,23.8
2023-02-06T01:41:53.744Z,23
2023-02-06T01:43:10.043Z,25.4
2023-02-06T01:44:26.337Z,24.1
2023-02-06T01:45:42.621Z,25.1
2023-02-06T01:46:58.919Z,24.6
2023-02-06T01:48:14.227Z,26.7
2023-02-06T01:49:30.533Z,24.5
2023-02-06T01:50:46.828Z,24.5
2023-02-06T01:52:03.130Z,24.1
2023-02-06T01:53:19.410Z,24
2023-02-06T01:54:35.708Z,23.9
2023-02-06T01:55:52.019Z,24.7
2023-02-06T01:57:08.304Z,22.4
2023-02-06T01:58:24.593Z,24.2
2023-02-06T01:59:40.899Z,21.6
2023-02-06T02:00:57.198Z,21.8
2023-02-06T02:02:13.478Z,22.6
2023-02-06T02:03:29.791Z,22.9
2023-02-06T02:04:45.104Z,22.9
2023-02-06T02:06:00.409Z,24
2023-02-06T02:07:16.704Z,23.5
2023-02-06T02:08:33.009Z,22.6
2023-02-06T02:09:49.289Z,23.6
2023-02-06T02:11:04.622Z,25.1
2023-02-06T02:12:19.923Z,24.2
2023-02-06T02:13:36.233Z,23.5
2023-02-06T02:14:52.525Z,24.2
2023-02-06T02:16:08.827Z,24.1
2023-02-06T02:17:25.119Z,24.2
2023-02-06T02:18:41.406Z,24.5
2023-02-06T02:19:57.704Z,27.1
2023-02-06T02:21:14.003Z,27.2
2023-02-06T02:22:30.299Z,25.5
2023-02-06T02:23:46.598Z,25.4
2023-02-06T02:25:02.878Z,27.3
2023-02-06T02:26:19.184Z,25.6
2023-02-06T02:27:35.473Z,29
2023-02-06T02:28:50.788Z,27.4
2023-02-06T02:30:07.082Z,26.4
2023-02-06T02:31:23.372Z,25.4
2023-02-06T02:32:39.671Z,25.2
2023-02-06T02:33:55.963Z,26.1
2023-02-06T02:35:12.260Z,26.2
2023-02-06T02:36:28.558Z,27.3
2023-02-06T02:37:44.856Z,26.7
2023-02-06T02:39:01.150Z,27.4
2023-02-06T02:40:17.454Z,25.5
2023-02-06T02:41:33.742Z,24.8
2023-02-06T02:42:50.045Z,26.8
2023-02-06T02:44:06.333Z,26.8
2023-02-06T02:45:21.647Z,27.6
2023-02-06T02:46:37.945Z,25.3
2023-02-06T02:47:54.246Z,24.3
2023-02-06T02:49:10.547Z,26.7
2023-02-06T02:50:26.835Z,26
2023-02-06T02:51:43.146Z,27
2023-02-06T02:52:59.427Z,25.2
2023-02-06T02:54:15.711Z,25.7
2023-02-06T02:55:32.021Z,26.5
2023-02-06T02:56:48.322Z,30.2
2023-02-06T02:58:04.602Z,30.1
2023-02-06T02:59:20.908Z,28.6
2023-02-06T03:00:37.206Z,27.1
2023-02-06T03:01:52.513Z,26.4
2023-02-06T03:03:08.805Z,25.2
2023-02-06T03:04:25.096Z,28
2023-02-06T03:05:41.389Z,26.4
2023-02-06T03:06:57.000Z,24.3
2023-02-06T03:08:13.992Z,26.9
2023-02-06T03:09:30.282Z,25.5
2023-02-06T03:10:46.588Z,25.4
2023-02-06T03:12:02.887Z,26.9
2023-02-06T03:13:19.168Z,24.3
2023-02-06T03:15:51.769Z,23.5
2023-02-06T03:17:08.071Z,24.1
2023-02-06T03:18:23.373Z,24.2
2023-02-06T03:19:39.668Z,22.3
2023-02-06T03:20:55.962Z,24.4
2023-02-06T03:22:12.261Z,24
2023-02-06T03:23:28.559Z,24.1
2023-02-06T03:24:44.848Z,22
2023-02-06T03:26:01.149Z,24.6
2023-02-06T03:27:17.454Z,24.6
2023-02-06T03:28:33.744Z,22.4
2023-02-06T03:29:50.041Z,23.5
2023-02-06T03:31:06.323Z,25
2023-02-06T03:32:22.625Z,24.5
2023-02-06T03:33:38.915Z,24.4
2023-02-06T03:34:54.233Z,24.2
2023-02-06T03:36:10.522Z,24.1
2023-02-06T03:37:26.815Z,24.6
2023-02-06T03:38:43.112Z,22.6
2023-02-06T03:39:59.420Z,23.2
2023-02-06T03:41:15.704Z,23.9
2023-02-06T03:42:32.005Z,24.6
2023-02-06T03:43:48.310Z,24.4
2023-02-06T03:45:04.599Z,24.9
2023-02-06T03:46:20.898Z,25.9
2023-02-06T03:47:37.198Z,25.4
2023-02-06T03:48:53.497Z,25.1
2023-02-06T03:50:09.776Z,26.5
2023-02-06T03:51:25.099Z,27.3
2023-02-06T03:52:41.398Z,29.2
2023-02-06T03:53:57.688Z,27.3
2023-02-06T03:55:13.976Z,27.1
2023-02-06T03:56:30.268Z,30
2023-02-06T03:57:46.566Z,28.3
2023-02-06T03:59:02.870Z,27.8
2023-02-06T04:00:19.163Z,29.1
2023-02-06T04:01:35.452Z,28.2
2023-02-06T04:04:08.047Z,28.3
2023-02-06T04:05:24.344Z,27.3
2023-02-06T04:06:40.652Z,28
2023-02-06T04:07:55.950Z,27.2
2023-02-06T04:09:12.249Z,28
2023-02-06T04:10:28.552Z,26.9
2023-02-06T04:11:44.836Z,28
2023-02-06T04:13:01.136Z,28.8
2023-02-06T04:14:17.432Z,29.4
2023-02-06T04:15:33.724Z,29.4
2023-02-06T04:16:50.023Z,28.7
2023-02-06T04:18:06.331Z,29.8
2023-02-06T04:19:22.622Z,28.7
2023-02-06T04:20:38.912Z,27.8
2023-02-06T04:21:55.215Z,31.5
2023-02-06T04:23:11.508Z,29.7
2023-02-06T04:24:26.812Z,31.7
2023-02-06T04:25:43.106Z,33
2023-02-06T04:26:59.416Z,31.9
2023-02-06T04:28:15.711Z,30.4
2023-02-06T04:29:32.004Z,31.7
2023-02-06T04:30:48.284Z,33
2023-02-06T04:32:04.597Z,33.9
2023-02-06T04:33:20.888Z,35.3
2023-02-06T04:34:37.189Z,35.1
2023-02-06T04:35:53.473Z,36.3
2023-02-06T04:37:09.777Z,36.5
2023-02-06T04:38:26.068Z,36.9
2023-02-06T04:39:42.375Z,36.7
2023-02-06T04:40:57.672Z,35.3
2023-02-06T04:42:13.977Z,35.3
2023-02-06T04:43:30.273Z,35.9
2023-02-06T04:44:46.568Z,33.9
2023-02-06T04:47:19.144Z,33.6
2023-02-06T04:48:35.000Z,36.4
2023-02-06T04:49:51.744Z,33.2
2023-02-06T04:51:08.030Z,34.9
2023-02-06T04:52:24.332Z,34.8
2023-02-06T04:53:40.622Z,33.6
2023-02-06T04:54:56.933Z,38.7
2023-02-06T04:56:13.213Z,38.9
2023-02-06T04:57:28.542Z,34.8
2023-02-06T04:58:44.826Z,33.1
2023-02-06T05:00:01.131Z,32.7
2023-02-06T05:01:17.412Z,33.5
2023-02-06T05:02:33.721Z,30.6
2023-02-06T05:05:06.296Z,34.4
2023-02-06T05:06:22.603Z,31.2
2023-02-06T05:08:55.194Z,30
2023-02-06T05:10:10.502Z,31.6
2023-02-06T05:11:25.812Z,31.3
2023-02-06T05:12:42.118Z,30.9
2023-02-06T05:13:58.422Z,29.3
2023-02-06T05:15:14.698Z,28.3
2023-02-06T05:16:31.002Z,30.1
2023-02-06T05:17:47.301Z,28.7
2023-02-06T05:19:03.603Z,29.2
2023-02-06T05:20:19.897Z,29.7
2023-02-06T05:21:36.186Z,29.7
2023-02-06T05:22:52.489Z,29.8
2023-02-06T05:24:07.802Z,32.9
2023-02-06T05:25:23.101Z,32.9
2023-02-06T05:26:39.406Z,33.4
2023-02-06T05:27:55.695Z,33.2
2023-02-06T05:29:11.994Z,32.2
2023-02-06T05:30:28.293Z,32.7
2023-02-06T05:33:00.885Z,35.7
2023-02-06T05:34:17.170Z,34.2
2023-02-06T05:35:33.468Z,35.2
2023-02-06T05:36:49.761Z,34.7
2023-02-06T05:38:06.053Z,34.1
2023-02-06T05:39:22.365Z,34.3
2023-02-06T05:40:38.651Z,32.7
2023-02-06T05:41:53.974Z,33.8
2023-02-06T05:43:10.253Z,35.2
2023-02-06T05:44:26.559Z,33
2023-02-06T05:45:42.855Z,33.8
2023-02-06T05:46:58.160Z,35.1
2023-02-06T05:48:14.459Z,34.8
2023-02-06T05:49:30.737Z,33.4
2023-02-06T05:50:47.044Z,35.2
2023-02-06T05:52:03.352Z,36.9
2023-02-06T05:53:18.678Z,36.4
2023-02-06T05:55:50.284Z,36.9
2023-02-06T05:57:06.568Z,38.4
2023-02-06T05:58:22.875Z,40.7
2023-02-06T05:59:38.174Z,39.1
2023-02-06T06:00:53.492Z,37.9
2023-02-06T06:02:09.748Z,38.6
2023-02-06T06:03:25.979Z,36.9
2023-02-06T06:04:42.238Z,40.4
2023-02-06T06:05:58.478Z,38.3
2023-02-06T06:07:14.757Z,39.1
2023-02-06T06:08:31.060Z,39
2023-02-06T06:09:47.312Z,40.6
2023-02-06T06:11:03.591Z,40.9
2023-02-06T06:12:19.851Z,46.3
2023-02-06T06:13:36.094Z,46.8
2023-02-06T06:14:52.330Z,53.2
2023-02-06T06:16:08.573Z,66.7
2023-02-06T06:17:23.845Z,67.4
2023-02-06T06:18:40.088Z,64.3
2023-02-06T06:19:56.343Z,57
2023-02-06T06:21:12.635Z,53.6
2023-02-06T06:22:28.891Z,51.2
2023-02-06T06:23:45.118Z,43.2
2023-02-06T06:25:01.361Z,41.3
2023-02-06T06:26:17.615Z,39.3
2023-02-06T06:27:33.843Z,38.8
2023-02-06T06:28:50.102Z,37.5
2023-02-06T06:30:06.323Z,40.4
2023-02-06T06:31:22.576Z,39.3
2023-02-06T06:32:38.813Z,39.9
2023-02-06T06:33:54.077Z,38.5
2023-02-06T06:35:10.308Z,40.9
2023-02-06T06:36:26.560Z,40.4
2023-02-06T06:37:42.805Z,40.3
2023-02-06T06:38:59.049Z,39.5
2023-02-06T06:40:15.286Z,38.5
2023-02-06T06:41:31.514Z,42.3
2023-02-06T06:42:47.764Z,42.6
2023-02-06T06:44:04.007Z,40.2
2023-02-06T06:45:20.248Z,41
2023-02-06T06:46:36.488Z,40.6
2023-02-06T06:47:52.728Z,41.6
2023-02-06T06:49:08.976Z,43.2
2023-02-06T06:50:24.238Z,44.8
2023-02-06T06:51:40.467Z,46.7
2023-02-06T06:52:56.707Z,47.4
2023-02-06T06:54:12.944Z,46.3
2023-02-06T06:56:45.431Z,46.9
2023-02-06T06:58:01.678Z,44.2
2023-02-06T06:59:17.915Z,48
2023-02-06T07:00:34.171Z,45.7
2023-02-06T07:01:50.403Z,47.8
2023-02-06T07:03:06.653Z,47.8
2023-02-06T07:04:22.885Z,49.3
2023-02-06T07:05:39.128Z,53.8
2023-02-06T07:06:54.380Z,59.1
2023-02-06T07:08:10.621Z,59.8
2023-02-06T07:09:26.863Z,60
2023-02-06T07:10:43.098Z,58.1
2023-02-06T07:11:59.359Z,57.1
2023-02-06T07:13:15.591Z,58.1
2023-02-06T07:14:31.828Z,56.6
2023-02-06T07:15:48.073Z,59.4
2023-02-06T07:17:04.308Z,61.3
2023-02-06T07:18:20.553Z,59.7
2023-02-06T07:19:36.790Z,56.7
2023-02-06T07:20:53.039Z,60.5
2023-02-06T07:22:09.281Z,62.2
2023-02-06T07:23:24.534Z,66.1
2023-02-06T07:24:40.783Z,64.3
2023-02-06T07:25:57.015Z,63.8
2023-02-06T07:27:13.272Z,65.1
2023-02-06T07:28:29.502Z,66.4
2023-02-06T07:29:45.747Z,65.9
2023-02-06T07:31:01.978Z,68.3
2023-02-06T07:32:18.230Z,64.8
2023-02-06T07:33:34.466Z,61.8
2023-02-06T07:34:50.718Z,61.8
2023-02-06T07:36:06.955Z,60.3
2023-02-06T07:37:23.184Z,60.5
2023-02-06T07:38:39.441Z,59.7
2023-02-06T07:39:54.697Z,57.5
2023-02-06T07:41:10.941Z,62.6
2023-02-06T07:42:27.173Z,58.8
2023-02-06T07:43:43.412Z,57.4
2023-02-06T07:44:59.661Z,58.4
2023-02-06T07:46:15.899Z,58
2023-02-06T07:47:32.134Z,58.2
2023-02-06T07:48:48.377Z,58.3
2023-02-06T07:50:04.631Z,59.7
2023-02-06T07:51:20.868Z,56.6
2023-02-06T07:52:37.103Z,56.1
2023-02-06T07:53:53.348Z,55.3
2023-02-06T07:55:09.577Z,58.9
2023-02-06T07:56:24.846Z,59
2023-02-06T07:57:41.082Z,59.1
2023-02-06T07:58:57.332Z,59.8
2023-02-06T08:00:13.574Z,62.5
2023-02-06T08:02:46.051Z,60.4
2023-02-06T08:04:02.000Z,62.5
2023-02-06T08:05:18.534Z,62.4
2023-02-06T08:06:34.767Z,61.2
2023-02-06T08:07:51.008Z,63.3
2023-02-06T08:09:07.254Z,65
2023-02-06T08:10:23.501Z,66
2023-02-06T08:11:39.747Z,65.3
2023-02-06T08:12:54.991Z,68
2023-02-06T08:14:11.246Z,69.8
2023-02-06T08:15:27.487Z,69.5
2023-02-06T08:16:43.723Z,70.6
2023-02-06T08:17:59.967Z,69.6
2023-02-06T08:19:16.193Z,71.6
2023-02-06T08:20:32.453Z,69.9
2023-02-06T08:21:48.687Z,73.3
2023-02-06T08:23:04.928Z,71.7
2023-02-06T08:24:21.171Z,75.2
2023-02-06T08:25:37.407Z,98.7
2023-02-06T08:28:09.885Z,123.9
2023-02-06T08:29:25.142Z,112.4
2023-02-06T08:30:41.382Z,85
2023-02-06T08:31:57.626Z,80.9
2023-02-06T08:33:13.874Z,84.1
2023-02-06T08:34:30.122Z,77.9
2023-02-06T08:35:46.346Z,76.3
2023-02-06T08:37:02.600Z,79.8
2023-02-06T08:38:18.842Z,77.2
2023-02-06T08:39:35.074Z,81.4
2023-02-06T08:40:51.310Z,83.8
2023-02-06T08:42:07.556Z,82.3
2023-02-06T08:43:23.801Z,85.9
2023-02-06T08:44:40.043Z,84.4
2023-02-06T08:45:55.302Z,89.2
2023-02-06T08:47:11.536Z,90.8
2023-02-06T08:48:27.789Z,93.5
2023-02-06T08:49:44.032Z,92.1
2023-02-06T08:51:00.272Z,93.7
2023-02-06T08:52:16.509Z,94.7
2023-02-06T08:53:32.753Z,93.1
2023-02-06T08:54:48.999Z,93.8
2023-02-06T08:56:05.226Z,85.7
2023-02-06T08:57:21.476Z,88.5
2023-02-06T08:58:37.715Z,90
2023-02-06T08:59:53.962Z,83.6
2023-02-06T09:01:10.186Z,90.9
2023-02-06T09:02:25.449Z,91.5
2023-02-06T09:03:41.689Z,85.7
2023-02-06T09:04:57.936Z,85.5
2023-02-06T09:06:14.169Z,87.3
2023-02-06T09:07:30.421Z,88.4
2023-02-06T09:08:46.655Z,86
2023-02-06T09:10:02.894Z,87.1
2023-02-06T09:11:19.148Z,92
2023-02-06T09:12:35.378Z,97.2
2023-02-06T09:13:51.617Z,100.9
2023-02-06T09:15:07.871Z,97
2023-02-06T09:16:24.103Z,91.8
2023-02-06T09:17:40.344Z,97.9
2023-02-06T09:18:55.607Z,96.6
2023-02-06T09:20:11.837Z,97
2023-02-06T09:21:28.082Z,91.4
2023-02-06T09:22:44.321Z,92.4
2023-02-06T09:24:00.564Z,91.6
2023-02-06T09:25:16.804Z,92
2023-02-06T09:26:33.044Z,94
2023-02-06T09:27:49.291Z,94.1
2023-02-06T09:29:05.534Z,102.8
2023-02-06T09:30:21.778Z,98.1
2023-02-06T09:31:38.014Z,97.4
2023-02-06T09:32:54.245Z,96.5
2023-02-06T09:34:10.498Z,97
2023-02-06T09:36:41.986Z,95.8
2023-02-06T09:37:58.234Z,102.3
2023-02-06T09:39:14.485Z,97.9
2023-02-06T09:40:30.727Z,97.8
2023-02-06T09:41:46.952Z,103
2023-02-06T09:44:19.439Z,99.5
2023-02-06T09:45:35.675Z,99.9
2023-02-06T09:46:51.924Z,105
2023-02-06T09:48:08.157Z,96.5
2023-02-06T09:49:24.411Z,107.3
2023-02-06T09:50:40.651Z,94.2
2023-02-06T09:51:55.911Z,98.9
2023-02-06T09:53:12.137Z,98.7
2023-02-06T09:54:28.380Z,100
2023-02-06T09:55:44.634Z,102.4
2023-02-06T09:57:00.868Z,97.5
2023-02-06T09:58:17.097Z,102.1
2023-02-06T09:59:33.354Z,96.1
2023-02-06T10:00:49.586Z,91.1
2023-02-06T10:02:04.856Z,98.7
2023-02-06T10:03:21.082Z,89.1
2023-02-06T10:04:37.342Z,89.9
2023-02-06T10:05:53.567Z,93.4
2023-02-06T10:07:09.808Z,87.4
2023-02-06T10:08:26.046Z,86.8
2023-02-06T10:09:42.296Z,87.3
2023-02-06T10:10:58.526Z,94.1
2023-02-06T10:12:14.777Z,93.4
2023-02-06T10:13:31.012Z,88.6
2023-02-06T10:14:47.263Z,91.9
2023-02-06T10:16:03.502Z,96
2023-02-06T10:17:19.732Z,87.2
2023-02-06T10:18:35.007Z,93.2
2023-02-06T10:19:51.245Z,97.1
2023-02-06T10:21:07.481Z,92
2023-02-06T10:22:23.724Z,95.5
2023-02-06T10:23:39.957Z,94.2
2023-02-06T10:24:56.198Z,92.2
2023-02-06T10:26:12.436Z,100
2023-02-06T10:27:28.689Z,101.7
2023-02-06T10:28:44.935Z,99.5
2023-02-06T10:30:01.164Z,102.7
2023-02-06T10:31:17.408Z,106.5
2023-02-06T10:32:33.654Z,105.1
2023-02-06T10:33:49.887Z,111.8
2023-02-06T10:35:05.154Z,112.9
2023-02-06T10:36:21.380Z,111.2
2023-02-06T10:37:37.635Z,113.1
2023-02-06T10:38:53.863Z,121.8
2023-02-06T10:40:10.101Z,129.3
2023-02-06T10:41:26.349Z,136.3
2023-02-06T10:42:42.583Z,134.1
2023-02-06T10:43:58.834Z,138.7
2023-02-06T10:45:15.064Z,143.5
2023-02-06T10:46:31.309Z,146.1
2023-02-06T10:47:47.544Z,132.8
2023-02-06T10:49:03.805Z,144
2023-02-06T10:50:20.046Z,147.2
2023-02-06T10:51:35.300Z,129
2023-02-06T10:52:51.542Z,133.9
2023-02-06T10:54:07.765Z,134.8
2023-02-06T10:55:24.011Z,127.8
2023-02-06T10:56:40.257Z,126.1
2023-02-06T10:57:56.496Z,138.7
2023-02-06T11:00:28.976Z,126.6
2023-02-06T11:01:45.226Z,153.8
2023-02-06T11:03:01.456Z,142.9
2023-02-06T11:04:17.700Z,160.5
2023-02-06T11:05:33.951Z,157.8
2023-02-06T11:08:06.423Z,149.3
2023-02-06T11:09:21.672Z,175.9
2023-02-06T11:10:37.924Z,165.1
2023-02-06T11:11:54.158Z,169.3
2023-02-06T11:13:10.401Z,177.6
2023-02-06T11:14:26.649Z,166.1
2023-02-06T11:15:42.882Z,183.9
2023-02-06T11:16:59.129Z,189.9
2023-02-06T11:18:15.362Z,187.4
2023-02-06T11:19:31.611Z,182.6
2023-02-06T11:20:47.839Z,159.4
2023-02-06T11:22:04.099Z,190.1
2023-02-06T11:23:20.340Z,185.7
2023-02-06T11:24:36.577Z,192.1
2023-02-06T11:25:51.833Z,176
2023-02-06T11:27:08.062Z,165.9
2023-02-06T11:28:24.301Z,170.4
2023-02-06T11:29:40.549Z,154.6
2023-02-06T11:30:56.786Z,163.5
2023-02-06T11:32:13.043Z,163.7
2023-02-06T11:33:29.274Z,173.8
2023-02-06T11:34:45.510Z,176.5
2023-02-06T11:36:01.748Z,134.7
2023-02-06T11:37:17.987Z,162.6
2023-02-06T11:38:34.230Z,151.6
2023-02-06T11:39:50.470Z,124.1
2023-02-06T11:41:06.722Z,136.8
2023-02-06T11:42:21.977Z,136
2023-02-06T11:43:38.210Z,129.4
2023-02-06T11:44:54.466Z,156.3
2023-02-06T11:46:10.704Z,132.3
2023-02-06T11:47:26.941Z,126.6
2023-02-06T11:48:43.175Z,119
2023-02-06T11:51:15.656Z,123.9
2023-02-06T11:53:48.134Z,111.7
2023-02-06T11:55:04.376Z,128.4
2023-02-06T11:56:20.628Z,118.3
2023-02-06T11:57:36.861Z,120.1
2023-02-06T11:58:52.130Z,124.2
2023-02-06T12:01:24.611Z,104
2023-02-06T12:02:39.860Z,124.7
2023-02-06T12:03:55.128Z,124.9
2023-02-06T12:05:11.366Z,95.4
2023-02-06T12:06:27.610Z,105.8
2023-02-06T12:07:43.841Z,101.5
2023-02-06T12:09:00.087Z,96.3
2023-02-06T12:10:16.332Z,113
2023-02-06T12:11:32.563Z,113.8
2023-02-06T12:12:48.806Z,103.3
2023-02-06T12:14:05.059Z,109.8
2023-02-06T12:15:21.295Z,96.5
2023-02-06T12:16:36.546Z,90.9
2023-02-06T12:17:51.812Z,100
2023-02-06T12:19:08.052Z,96.2
2023-02-06T12:20:24.287Z,92.3
2023-02-06T12:22:56.774Z,93.6
2023-02-06T12:24:13.016Z,96.3
2023-02-06T12:25:29.258Z,99.4
2023-02-06T12:26:45.506Z,93.5
2023-02-06T12:28:01.746Z,98.2
2023-02-06T12:29:17.000Z,95.4
2023-02-06T12:30:34.213Z,97.5
2023-02-06T12:31:50.461Z,99.7
2023-02-06T12:33:06.710Z,105
2023-02-06T12:34:21.960Z,84
2023-02-06T12:35:38.204Z,87.2
2023-02-06T12:36:54.450Z,79.4
2023-02-06T12:38:10.687Z,81.3
2023-02-06T12:39:26.928Z,91.8
2023-02-06T12:40:43.158Z,80.6
2023-02-06T12:43:15.645Z,84.7
2023-02-06T12:44:31.896Z,77.4
2023-02-06T12:45:48.132Z,75.7
2023-02-06T12:47:04.375Z,79.2
2023-02-06T12:48:20.605Z,70.7
2023-02-06T12:49:36.842Z,61.7
2023-02-06T12:50:52.101Z,67.4
2023-02-06T12:52:08.350Z,67.6
2023-02-06T12:53:24.594Z,66.9
2023-02-06T12:54:40.819Z,72.1
2023-02-06T12:55:57.080Z,75.1
2023-02-06T12:57:13.312Z,68.6
2023-02-06T12:58:29.543Z,62.3
2023-02-06T12:59:45.801Z,63.2
2023-02-06T13:01:02.039Z,61.5
2023-02-06T13:02:18.278Z,50.4
2023-02-06T13:03:34.521Z,42.3
2023-02-06T13:04:50.748Z,32.5
2023-02-06T13:06:06.999Z,39.3
2023-02-06T13:07:22.255Z,34.5
2023-02-06T13:08:38.492Z,37.6
2023-02-06T13:09:54.733Z,39.5
2023-02-06T13:11:10.974Z,39.2
2023-02-06T13:13:43.463Z,38.4
2023-02-06T13:14:59.707Z,38.7
2023-02-06T13:17:32.183Z,38.1
2023-02-06T13:18:48.424Z,41.1
2023-02-06T13:20:04.654Z,37.8
2023-02-06T13:21:20.898Z,41.8
2023-02-06T13:22:37.148Z,42.1
2023-02-06T13:23:53.378Z,42.5
2023-02-06T13:25:08.652Z,40.1
2023-02-06T13:26:24.890Z,35.4
2023-02-06T13:27:41.133Z,41.6
2023-02-06T13:28:57.360Z,41.3
2023-02-06T13:30:13.602Z,39.1
2023-02-06T13:32:46.089Z,42.9
2023-02-06T13:34:01.348Z,42.8
2023-02-06T13:35:16.606Z,45.1
2023-02-06T13:36:32.852Z,49.5
2023-02-06T13:37:49.079Z,51.9
2023-02-06T13:39:05.328Z,52.4
2023-02-06T13:40:21.561Z,51.8
2023-02-06T13:41:37.801Z,49.9
2023-02-06T13:42:54.060Z,46.1
2023-02-06T13:44:10.291Z,43.2
2023-02-06T13:45:26.544Z,45.2
2023-02-06T13:46:42.766Z,46.4
2023-02-06T13:47:58.039Z,44.2
2023-02-06T13:49:13.289Z,42.2
2023-02-06T13:50:29.544Z,41.6
2023-02-06T13:51:45.781Z,38.8
2023-02-06T13:53:02.017Z,42.4
2023-02-06T13:54:18.256Z,39.6
2023-02-06T13:55:34.490Z,40.1
2023-02-06T13:56:50.738Z,39.5
2023-02-06T13:58:06.977Z,42.5
2023-02-06T13:59:23.222Z,45.4
2023-02-06T14:00:39.461Z,44.2
2023-02-06T14:01:55.699Z,48.6
2023-02-06T14:03:11.948Z,50.3
2023-02-06T14:04:28.195Z,48.6
2023-02-06T14:05:43.451Z,44.5
2023-02-06T14:06:59.688Z,46.9
2023-02-06T14:08:15.922Z,43.6
2023-02-06T14:10:48.411Z,48.7
2023-02-06T14:12:04.644Z,49.3
2023-02-06T14:13:20.891Z,48.2
2023-02-06T14:14:37.131Z,52.6
2023-02-06T14:15:53.361Z,52.9
2023-02-06T14:18:24.870Z,53.3
2023-02-06T14:19:40.139Z,56.9
2023-02-06T14:20:56.372Z,54
2023-02-06T14:22:12.625Z,54.9
2023-02-06T14:23:28.852Z,49.3
2023-02-06T14:24:45.104Z,43.6
2023-02-06T14:26:01.347Z,45.1
2023-02-06T14:27:17.572Z,44.6
2023-02-06T14:28:33.825Z,46.1
2023-02-06T14:29:50.072Z,43.6
2023-02-06T14:31:06.311Z,45.9
2023-02-06T14:32:22.535Z,44.8
2023-02-06T14:33:38.780Z,49.1
2023-02-06T14:34:55.028Z,48.8
2023-02-06T14:36:10.290Z,49.4
2023-02-06T14:37:26.530Z,54
2023-02-06T14:38:42.757Z,56
2023-02-06T14:41:15.257Z,54.9
2023-02-06T14:42:31.483Z,53.8
2023-02-06T14:43:47.735Z,57.2
2023-02-06T14:45:03.967Z,57.9
2023-02-06T14:46:20.205Z,55.2
2023-02-06T14:47:36.462Z,55.4
2023-02-06T14:48:52.683Z,57.9
2023-02-06T14:50:08.942Z,58.2
2023-02-06T14:51:25.166Z,58.4
2023-02-06T14:52:40.430Z,55.3
2023-02-06T14:53:56.680Z,56.6
2023-02-06T14:56:29.156Z,62.3
2023-02-06T14:57:45.398Z,56.4
2023-02-06T14:59:01.630Z,56.7
2023-02-06T15:00:17.870Z,56.6
2023-02-06T15:01:34.109Z,52.9
2023-02-06T15:02:50.362Z,55.9
2023-02-06T15:04:06.608Z,53.2
2023-02-06T15:05:22.000Z,53.5
2023-02-06T15:06:39.075Z,53.7
2023-02-06T15:07:55.324Z,51.8
2023-02-06T15:09:10.574Z,49.9
2023-02-06T15:10:26.832Z,51.2
2023-02-06T15:11:43.071Z,51.1
2023-02-06T15:12:59.296Z,50.1
2023-02-06T15:14:15.540Z,51.8
2023-02-06T15:15:31.794Z,53.5
2023-02-06T15:16:48.024Z,55.4
2023-02-06T15:18:04.277Z,51
2023-02-06T15:19:20.518Z,54.1
2023-02-06T15:20:36.747Z,53.9
2023-02-06T15:21:52.990Z,53.3
2023-02-06T15:23:09.224Z,53.7
2023-02-06T15:24:25.480Z,54.5
2023-02-06T15:25:40.735Z,54.9
2023-02-06T15:26:56.980Z,54.2
2023-02-06T15:29:29.445Z,56.3
2023-02-06T15:30:45.692Z,56.3
2023-02-06T15:32:01.939Z,56.5
2023-02-06T15:33:18.179Z,59.5
2023-02-06T15:34:34.415Z,55.9
2023-02-06T15:35:50.655Z,59.2
2023-02-06T15:37:06.898Z,61.9
2023-02-06T15:38:23.135Z,64.5
2023-02-06T15:39:39.374Z,59.9
2023-02-06T15:40:55.629Z,58.1
2023-02-06T15:42:10.888Z,58.5
2023-02-06T15:43:27.121Z,58.7
2023-02-06T15:44:43.367Z,59.4
2023-02-06T15:45:59.604Z,57.3
2023-02-06T15:47:15.838Z,60.5
2023-02-06T15:48:32.081Z,59.6
2023-02-06T15:49:48.326Z,63.8
2023-02-06T15:51:04.565Z,64.1
2023-02-06T15:52:20.805Z,64.8
2023-02-06T15:53:37.050Z,63.9
2023-02-06T15:54:53.289Z,63
2023-02-06T15:56:09.522Z,62.5
2023-02-06T15:57:25.784Z,64.6
2023-02-06T15:58:41.027Z,63
2023-02-06T15:59:57.268Z,66.5
2023-02-06T16:01:13.522Z,63
2023-02-06T16:02:29.750Z,64.6
2023-02-06T16:03:45.999Z,66.7
2023-02-06T16:05:02.243Z,69.1
2023-02-06T16:06:18.475Z,66.7
2023-02-06T16:07:34.722Z,67.9
2023-02-06T16:08:50.963Z,68
2023-02-06T16:10:07.209Z,67.7
2023-02-06T16:11:23.450Z,67
2023-02-06T16:12:39.682Z,64.3
2023-02-06T16:13:55.918Z,67
2023-02-06T16:15:11.174Z,68.1
2023-02-06T16:16:27.420Z,64.5
2023-02-06T16:17:43.673Z,65.2
2023-02-06T16:20:16.153Z,61.4
2023-02-06T16:21:32.376Z,62.1
2023-02-06T16:22:48.632Z,62.1
2023-02-06T16:24:04.872Z,59.7
2023-02-06T16:25:21.111Z,61.1
2023-02-06T16:26:37.344Z,58.9
2023-02-06T16:27:53.583Z,58.5
2023-02-06T16:29:09.825Z,58.5
2023-02-06T16:30:26.084Z,57.5
2023-02-06T16:31:41.324Z,54.6
2023-02-06T16:32:57.569Z,60.8
2023-02-06T16:34:13.869Z,59
2023-02-06T16:35:30.119Z,55.4
2023-02-06T16:36:46.358Z,56.3
2023-02-06T16:38:02.649Z,55.7
2023-02-06T16:39:18.931Z,50.9
2023-02-06T16:40:35.230Z,52.7
2023-02-06T16:41:51.491Z,52.2
2023-02-06T16:43:07.738Z,54.9
2023-02-06T16:45:40.330Z,56.5
2023-02-06T16:46:56.622Z,54.3
2023-02-06T16:48:11.927Z,50.8
2023-02-06T16:49:28.224Z,52.4
2023-02-06T16:50:44.528Z,46.9
2023-02-06T16:52:00.804Z,44.7
2023-02-06T16:53:17.106Z,46
2023-02-06T16:54:33.414Z,49.7
2023-02-06T16:55:49.700Z,49.5
2023-02-06T16:58:22.286Z,51.7
2023-02-06T16:59:38.586Z,50.4
2023-02-06T17:00:54.886Z,51.3
2023-02-06T17:02:11.179Z,57.2
2023-02-06T17:03:27.471Z,54.4
2023-02-06T17:04:42.775Z,59.5
2023-02-06T17:05:59.083Z,56.2
2023-02-06T17:07:15.376Z,57.4
2023-02-06T17:08:31.665Z,57.6
2023-02-06T17:09:47.955Z,55.5
2023-02-06T17:11:04.255Z,56.7
2023-02-06T17:12:20.553Z,52.6
2023-02-06T17:13:36.845Z,52.8
2023-02-06T17:14:53.142Z,53.8
2023-02-06T17:16:09.433Z,57.6
2023-02-06T17:17:25.728Z,59.2
2023-02-06T17:18:42.037Z,56.1
2023-02-06T17:19:58.326Z,60.9
2023-02-06T17:21:13.628Z,55.5
2023-02-06T17:22:29.932Z,57.7
2023-02-06T17:23:46.226Z,56.1
2023-02-06T17:25:02.518Z,58.1
2023-02-06T17:26:18.827Z,62
2023-02-06T17:27:35.122Z,63.5
2023-02-06T17:28:51.401Z,66.6
2023-02-06T17:30:07.709Z,62.8
2023-02-06T17:31:23.989Z,60
2023-02-06T17:32:40.290Z,58.2
2023-02-06T17:33:56.591Z,59.9
2023-02-06T17:35:12.882Z,61.9
2023-02-06T17:36:29.169Z,63.3